createdAt,value
2022-12-26T00:01:06.022Z,27.52
2022-12-26T00:06:00.756Z,25.75
2022-12-26T00:08:28.127Z,26.05
2022-12-26T00:10:55.592Z,27.00
2022-12-26T00:13:40.264Z,26.83
2022-12-26T00:16:14.449Z,25.70
2022-12-26T00:18:42.142Z,28.20
2022-12-26T00:21:11.441Z,26.33
2022-12-26T00:23:41.203Z,28.52
2022-12-26T00:26:19.849Z,26.60
2022-12-26T00:28:47.548Z,28.38
2022-12-26T00:31:18.424Z,26.83
2022-12-26T00:33:46.370Z,27.92
2022-12-26T00:36:29.673Z,27.92
2022-12-26T00:38:58.764Z,27.38
2022-12-26T00:41:26.485Z,28.98
2022-12-26T00:43:54.023Z,26.98
2022-12-26T00:46:26.138Z,28.52
2022-12-26T00:48:54.024Z,27.05
2022-12-26T00:51:21.734Z,28.55
2022-12-26T00:53:49.486Z,28.00
2022-12-26T00:56:16.890Z,27.42
2022-12-26T00:58:44.489Z,28.83
2022-12-26T01:01:22.104Z,30.55
2022-12-26T01:03:50.230Z,31.40
2022-12-26T01:06:17.873Z,30.75
2022-12-26T01:08:45.246Z,30.40
2022-12-26T01:11:15.640Z,32.83
2022-12-26T01:13:43.310Z,31.30
2022-12-26T01:16:10.814Z,30.95
2022-12-26T01:18:38.244Z,32.72
2022-12-26T01:21:08.517Z,31.45
2022-12-26T01:23:36.133Z,33.42
2022-12-26T01:26:16.350Z,32.42
2022-12-26T01:28:49.210Z,32.60
2022-12-26T01:31:16.866Z,30.63
2022-12-26T01:33:44.597Z,31.55
2022-12-26T01:36:12.384Z,33.15
2022-12-26T01:38:39.798Z,32.15
2022-12-26T01:41:22.266Z,32.10
2022-12-26T01:43:59.804Z,32.30
2022-12-26T01:46:39.386Z,33.72
2022-12-26T01:49:15.367Z,32.30
2022-12-26T01:51:47.437Z,31.00
2022-12-26T01:54:40.220Z,32.72
2022-12-26T01:57:06.764Z,31.77
2022-12-26T01:59:37.424Z,34.00
2022-12-26T02:02:05.742Z,32.15
2022-12-26T02:04:57.757Z,32.00
2022-12-26T02:07:26.584Z,32.40
2022-12-26T02:09:54.179Z,32.55
2022-12-26T02:12:35.325Z,31.65
2022-12-26T02:15:09.179Z,32.65
2022-12-26T02:17:37.844Z,31.23
2022-12-26T02:20:27.783Z,31.48
2022-12-26T02:23:32.192Z,30.98
2022-12-26T02:26:18.007Z,31.65
2022-12-26T02:29:03.809Z,30.60
2022-12-26T02:32:03.386Z,32.22
2022-12-26T02:34:39.246Z,29.85
2022-12-26T02:37:38.949Z,30.83
2022-12-26T02:40:24.972Z,28.85
2022-12-26T02:43:00.112Z,30.42
2022-12-26T02:46:05.023Z,32.50
2022-12-26T02:49:07.952Z,30.90
2022-12-26T02:52:15.646Z,30.40
2022-12-26T02:55:01.594Z,29.08
2022-12-26T02:57:59.948Z,30.02
2022-12-26T03:00:46.835Z,30.20
2022-12-26T03:03:38.279Z,29.23
2022-12-26T03:06:30.259Z,30.80
2022-12-26T03:09:18.771Z,30.92
2022-12-26T03:12:10.316Z,31.42
2022-12-26T03:15:03.111Z,30.65
2022-12-26T03:17:36.583Z,31.30
2022-12-26T03:20:10.340Z,30.35
2022-12-26T03:22:46.710Z,31.98
2022-12-26T03:26:01.152Z,30.40
2022-12-26T03:28:28.726Z,31.05
2022-12-26T03:30:59.730Z,31.58
2022-12-26T03:33:52.218Z,32.77
2022-12-26T03:36:25.900Z,30.60
2022-12-26T03:39:19.376Z,31.92
2022-12-26T03:42:21.435Z,31.55
2022-12-26T03:45:16.840Z,32.83
2022-12-26T03:48:24.301Z,33.58
2022-12-26T03:51:20.757Z,33.20
2022-12-26T03:54:14.320Z,32.85
2022-12-26T03:57:06.540Z,33.25
2022-12-26T04:00:08.556Z,34.25
2022-12-26T04:02:59.951Z,34.00
2022-12-26T04:05:46.972Z,34.47
2022-12-26T04:08:39.928Z,34.63
2022-12-26T04:11:33.821Z,35.53
2022-12-26T04:14:30.090Z,34.88
2022-12-26T04:17:35.632Z,33.45
2022-12-26T04:20:16.565Z,34.28
2022-12-26T04:23:09.632Z,33.97
2022-12-26T04:26:16.678Z,33.22
2022-12-26T04:29:03.068Z,33.80
2022-12-26T04:31:55.007Z,32.95
2022-12-26T04:34:59.606Z,34.13
2022-12-26T04:37:47.646Z,32.17
2022-12-26T04:40:39.351Z,31.05
2022-12-26T04:43:48.857Z,31.15
2022-12-26T04:46:16.949Z,31.48
2022-12-26T04:49:06.173Z,30.30
2022-12-26T04:51:34.453Z,30.50
2022-12-26T04:54:02.068Z,28.27
2022-12-26T04:56:29.533Z,29.58
2022-12-26T04:58:57.076Z,28.13
2022-12-26T05:01:43.360Z,29.13
2022-12-26T05:04:33.823Z,29.38
2022-12-26T05:07:21.831Z,30.75
2022-12-26T05:09:51.602Z,29.50
2022-12-26T05:12:19.654Z,28.63
2022-12-26T05:14:47.505Z,27.10
2022-12-26T05:17:33.754Z,28.42
2022-12-26T05:20:19.647Z,29.50
2022-12-26T05:23:06.167Z,28.98
2022-12-26T05:25:58.415Z,29.10
2022-12-26T05:28:44.112Z,28.08
2022-12-26T05:31:16.695Z,28.90
2022-12-26T05:34:03.138Z,30.95
2022-12-26T05:36:35.926Z,30.52
2022-12-26T05:39:04.578Z,32.40
2022-12-26T05:41:31.990Z,32.92
2022-12-26T05:43:59.454Z,33.25
2022-12-26T05:46:27.572Z,33.90
2022-12-26T05:48:55.012Z,33.60
2022-12-26T05:51:22.424Z,32.47
2022-12-26T05:53:50.673Z,35.78
2022-12-26T05:56:18.938Z,33.97
2022-12-26T05:58:47.128Z,34.47
2022-12-26T06:01:19.931Z,36.58
2022-12-26T06:03:49.678Z,35.42
2022-12-26T06:06:18.461Z,36.50
2022-12-26T06:08:51.043Z,37.63
2022-12-26T06:11:19.474Z,35.92
2022-12-26T06:13:46.962Z,37.80
2022-12-26T06:16:16.954Z,38.50
2022-12-26T06:18:44.708Z,38.15
2022-12-26T06:21:17.076Z,39.47
2022-12-26T06:23:44.663Z,39.70
2022-12-26T06:26:12.964Z,38.72
2022-12-26T06:28:42.137Z,39.63
2022-12-26T06:31:16.139Z,40.67
2022-12-26T06:33:44.048Z,39.95
2022-12-26T06:36:17.076Z,39.58
2022-12-26T06:38:44.635Z,42.20
2022-12-26T06:41:17.992Z,40.20
2022-12-26T06:43:45.917Z,40.80
2022-12-26T06:46:16.301Z,42.05
2022-12-26T06:48:43.971Z,41.30
2022-12-26T06:51:14.175Z,39.55
2022-12-26T06:53:42.009Z,42.15
2022-12-26T06:56:16.020Z,39.47
2022-12-26T06:58:43.707Z,40.72
2022-12-26T07:01:14.225Z,42.40
2022-12-26T07:03:50.476Z,42.65
2022-12-26T07:06:28.054Z,43.13
2022-12-26T07:09:01.175Z,41.88
2022-12-26T07:11:31.101Z,42.08
2022-12-26T07:13:58.875Z,44.25
2022-12-26T07:16:26.989Z,41.05
2022-12-26T07:18:58.852Z,45.00
2022-12-26T07:21:26.432Z,43.03
2022-12-26T07:23:55.277Z,41.95
2022-12-26T07:26:24.471Z,42.88
2022-12-26T07:28:56.565Z,43.05
2022-12-26T07:31:25.331Z,41.60
2022-12-26T07:33:54.595Z,40.90
2022-12-26T07:36:22.575Z,41.30
2022-12-26T07:38:49.913Z,41.63
2022-12-26T07:41:35.832Z,43.08
2022-12-26T07:44:04.011Z,42.42
2022-12-26T07:46:31.733Z,40.90
2022-12-26T07:48:59.168Z,40.95
2022-12-26T07:51:26.822Z,39.80
2022-12-26T07:53:54.319Z,43.40
2022-12-26T07:56:21.951Z,40.63
2022-12-26T07:58:50.337Z,40.83
2022-12-26T08:01:18.780Z,40.50
2022-12-26T08:03:49.453Z,39.63
2022-12-26T08:06:18.375Z,41.30
2022-12-26T08:08:51.175Z,42.33
2022-12-26T08:11:23.875Z,41.80
2022-12-26T08:13:52.257Z,40.63
2022-12-26T08:16:19.941Z,41.38
2022-12-26T08:18:47.440Z,42.88
2022-12-26T08:21:14.897Z,39.97
2022-12-26T08:23:42.414Z,40.63
2022-12-26T08:26:12.931Z,40.35
2022-12-26T08:28:42.559Z,41.28
2022-12-26T08:31:10.894Z,42.17
2022-12-26T08:33:38.358Z,41.13
2022-12-26T08:36:08.292Z,40.47
2022-12-26T08:38:36.663Z,41.85
2022-12-26T08:41:04.321Z,40.03
2022-12-26T08:44:03.640Z,39.45
2022-12-26T08:46:21.332Z,37.45
2022-12-26T08:48:50.161Z,38.13
2022-12-26T08:51:23.623Z,37.97
2022-12-26T08:53:53.081Z,38.40
2022-12-26T08:56:23.739Z,39.80
2022-12-26T08:58:51.146Z,39.30
2022-12-26T09:01:21.956Z,39.45
2022-12-26T09:03:53.697Z,40.83
2022-12-26T09:06:21.720Z,40.05
2022-12-26T09:08:49.320Z,41.65
2022-12-26T09:11:19.235Z,41.28
2022-12-26T09:13:47.219Z,42.05
2022-12-26T09:16:17.684Z,48.60
2022-12-26T09:18:46.247Z,46.22
2022-12-26T09:21:16.035Z,51.17
2022-12-26T09:23:44.084Z,52.72
2022-12-26T09:26:20.184Z,52.38
2022-12-26T09:28:47.728Z,51.38
2022-12-26T09:31:17.821Z,50.70
2022-12-26T09:33:47.259Z,50.42
2022-12-26T09:36:18.150Z,51.35
2022-12-26T09:38:47.183Z,48.08
2022-12-26T09:41:29.687Z,46.60
2022-12-26T09:44:21.886Z,40.95
2022-12-26T09:47:04.239Z,39.53
2022-12-26T09:49:44.053Z,38.78
2022-12-26T09:52:37.607Z,38.15
2022-12-26T09:55:35.840Z,38.03
2022-12-26T09:58:18.169Z,36.08
2022-12-26T10:00:56.073Z,35.60
2022-12-26T10:03:24.748Z,36.58
2022-12-26T10:06:00.985Z,33.42
2022-12-26T10:09:05.535Z,35.90
2022-12-26T10:11:45.050Z,35.30
2022-12-26T10:14:40.721Z,36.83
2022-12-26T10:17:26.606Z,38.03
2022-12-26T10:20:06.134Z,37.28
2022-12-26T10:22:41.518Z,36.92
2022-12-26T10:25:18.928Z,36.20
2022-12-26T10:27:49.948Z,37.90
2022-12-26T10:30:31.389Z,38.65
2022-12-26T10:33:04.729Z,38.63
2022-12-26T10:35:40.766Z,36.72
2022-12-26T10:38:32.507Z,37.58
2022-12-26T10:41:11.368Z,38.30
2022-12-26T10:43:44.817Z,39.92
2022-12-26T10:46:37.909Z,40.05
2022-12-26T10:49:08.123Z,39.25
2022-12-26T10:51:38.101Z,40.95
2022-12-26T10:54:14.840Z,41.35
2022-12-26T10:56:42.853Z,38.55
2022-12-26T10:59:16.750Z,38.80
2022-12-26T11:01:47.829Z,41.03
2022-12-26T11:04:44.402Z,40.47
2022-12-26T11:07:12.822Z,39.42
2022-12-26T11:09:43.941Z,40.65
2022-12-26T11:12:20.440Z,39.07
2022-12-26T11:14:48.170Z,40.30
2022-12-26T11:17:27.149Z,39.33
2022-12-26T11:20:26.317Z,39.28
2022-12-26T11:22:54.009Z,38.45
2022-12-26T11:25:35.118Z,38.15
2022-12-26T11:28:39.185Z,39.45
2022-12-26T11:31:18.517Z,39.35
2022-12-26T11:33:46.667Z,39.42
2022-12-26T11:36:26.275Z,38.03
2022-12-26T11:39:00.652Z,39.40
2022-12-26T11:41:36.624Z,39.85
2022-12-26T11:44:19.377Z,38.15
2022-12-26T11:47:00.457Z,39.42
2022-12-26T11:49:33.785Z,39.60
2022-12-26T11:52:22.821Z,41.35
2022-12-26T11:54:51.261Z,38.67
2022-12-26T11:57:20.456Z,38.35
2022-12-26T11:59:49.343Z,37.65
2022-12-26T12:02:26.161Z,38.60
2022-12-26T12:05:00.770Z,38.15
2022-12-26T12:07:59.583Z,39.55
2022-12-26T12:10:47.895Z,40.85
2022-12-26T12:13:38.581Z,40.90
2022-12-26T12:16:40.271Z,40.78
2022-12-26T12:19:36.013Z,39.42
2022-12-26T12:22:18.448Z,38.47
2022-12-26T12:25:03.865Z,39.80
2022-12-26T12:27:35.391Z,40.00
2022-12-26T12:30:02.738Z,39.63
2022-12-26T12:32:59.267Z,39.97
2022-12-26T12:35:48.556Z,40.05
2022-12-26T12:38:24.788Z,41.30
2022-12-26T12:41:04.322Z,40.13
2022-12-26T12:43:37.340Z,39.80
2022-12-26T12:46:23.041Z,37.72
2022-12-26T12:49:11.178Z,38.08
2022-12-26T12:51:52.459Z,37.33
2022-12-26T12:54:50.751Z,38.88
2022-12-26T12:57:27.273Z,38.08
2022-12-26T13:00:17.857Z,36.50
2022-12-26T13:03:10.448Z,36.97
2022-12-26T13:05:59.696Z,36.63
2022-12-26T13:08:37.327Z,35.45
2022-12-26T13:11:14.868Z,36.92
2022-12-26T13:13:54.325Z,34.97
2022-12-26T13:16:41.501Z,35.53
2022-12-26T13:19:24.444Z,35.72
2022-12-26T13:21:57.600Z,34.50
2022-12-26T13:24:40.673Z,36.20
2022-12-26T13:27:19.652Z,35.53
2022-12-26T13:29:48.914Z,34.97
2022-12-26T13:32:25.594Z,34.63
2022-12-26T13:34:55.455Z,34.42
2022-12-26T13:37:53.994Z,34.58
2022-12-26T13:40:27.529Z,36.20
2022-12-26T13:43:39.017Z,34.67
2022-12-26T13:46:38.358Z,36.30
2022-12-26T13:49:26.070Z,36.00
2022-12-26T13:51:55.965Z,35.83
2022-12-26T13:54:26.529Z,36.58
2022-12-26T13:57:20.874Z,37.47
2022-12-26T14:00:17.910Z,37.33
2022-12-26T14:05:48.032Z,36.47
2022-12-26T14:08:34.289Z,38.13
2022-12-26T14:11:23.168Z,39.42
2022-12-26T14:13:56.510Z,37.55
2022-12-26T14:16:29.716Z,37.35
2022-12-26T14:19:14.735Z,36.05
2022-12-26T14:22:01.076Z,37.60
2022-12-26T14:24:43.352Z,36.63
2022-12-26T14:27:20.254Z,35.50
2022-12-26T14:29:59.091Z,37.20
2022-12-26T14:32:37.165Z,36.22
2022-12-26T14:35:23.052Z,36.95
2022-12-26T14:37:58.849Z,35.50
2022-12-26T14:40:34.807Z,39.30
2022-12-26T14:43:11.427Z,37.70
2022-12-26T14:45:41.792Z,37.05
2022-12-26T14:48:15.273Z,37.10
2022-12-26T14:50:48.652Z,38.00
2022-12-26T14:53:25.045Z,37.60
2022-12-26T14:56:01.495Z,37.95
2022-12-26T14:58:31.635Z,35.53
2022-12-26T15:01:15.628Z,36.90
2022-12-26T15:04:15.017Z,37.65
2022-12-26T15:06:54.199Z,37.80
2022-12-26T15:09:36.548Z,39.50
2022-12-26T15:12:34.444Z,37.53
2022-12-26T15:15:32.802Z,37.42
2022-12-26T15:18:11.371Z,37.97
2022-12-26T15:20:44.730Z,38.50
2022-12-26T15:23:33.011Z,38.42
2022-12-26T15:26:33.418Z,37.25
2022-12-26T15:29:25.635Z,37.60
2022-12-26T15:32:13.165Z,37.85
2022-12-26T15:35:06.101Z,38.22
2022-12-26T15:37:54.457Z,39.83
2022-12-26T15:40:29.276Z,38.85
2022-12-26T15:43:17.928Z,38.13
2022-12-26T15:45:48.584Z,39.83
2022-12-26T15:49:00.798Z,39.35
2022-12-26T15:51:53.874Z,38.80
2022-12-26T15:54:41.454Z,38.85
2022-12-26T15:57:19.442Z,40.10
2022-12-26T15:59:59.769Z,39.13
2022-12-26T16:02:27.318Z,40.67
2022-12-26T16:05:23.522Z,41.40
2022-12-26T16:08:04.152Z,41.17
2022-12-26T16:10:34.022Z,42.83
2022-12-26T16:13:23.485Z,42.78
2022-12-26T16:15:56.375Z,42.58
2022-12-26T16:18:32.523Z,41.92
2022-12-26T16:21:22.936Z,40.97
2022-12-26T16:23:52.669Z,43.65
2022-12-26T16:26:26.904Z,41.15
2022-12-26T16:28:56.417Z,41.80
2022-12-26T16:31:26.501Z,43.03
2022-12-26T16:33:57.318Z,41.08
2022-12-26T16:36:29.182Z,40.35
2022-12-26T16:38:56.736Z,40.05
2022-12-26T16:41:26.646Z,40.42
2022-12-26T16:43:56.743Z,41.30
2022-12-26T16:46:28.929Z,40.53
2022-12-26T16:49:01.018Z,40.90
2022-12-26T16:54:15.621Z,39.10
2022-12-26T16:56:43.520Z,39.97
2022-12-26T16:59:18.353Z,40.80
2022-12-26T17:01:57.641Z,39.55
2022-12-26T17:04:27.693Z,41.10
2022-12-26T17:06:59.313Z,40.95
2022-12-26T17:09:29.620Z,40.45
2022-12-26T17:12:01.487Z,39.80
2022-12-26T17:14:33.419Z,40.95
2022-12-26T17:19:31.973Z,39.28
2022-12-26T17:22:28.706Z,41.53
2022-12-26T17:25:34.414Z,42.95
2022-12-26T17:28:07.724Z,42.72
2022-12-26T17:30:53.794Z,41.15
2022-12-26T17:33:27.173Z,42.88
2022-12-26T17:36:52.547Z,42.40
2022-12-26T17:38:50.825Z,42.75
2022-12-26T17:41:20.727Z,41.90
2022-12-26T17:43:48.981Z,42.38
2022-12-26T17:46:17.617Z,43.20
2022-12-26T17:48:45.237Z,41.55
2022-12-26T17:51:16.525Z,40.25
2022-12-26T17:53:49.469Z,40.60
2022-12-26T17:56:24.412Z,39.75
2022-12-26T17:58:52.250Z,39.08
2022-12-26T18:01:21.890Z,40.80
2022-12-26T18:03:52.067Z,41.58
2022-12-26T18:06:19.986Z,40.60
2022-12-26T18:08:47.577Z,40.53
2022-12-26T18:11:14.935Z,41.25
2022-12-26T18:13:44.358Z,41.22
2022-12-26T18:16:17.360Z,41.22
2022-12-26T18:18:46.655Z,43.33
2022-12-26T18:21:15.937Z,42.22
2022-12-26T18:23:43.465Z,40.55
2022-12-26T18:26:19.773Z,40.30
2022-12-26T18:28:49.988Z,41.28
2022-12-26T18:31:17.415Z,42.30
2022-12-26T18:33:44.848Z,40.75
2022-12-26T18:36:13.777Z,41.30
2022-12-26T18:38:41.555Z,40.78
2022-12-26T18:41:14.137Z,41.55
2022-12-26T18:43:41.550Z,40.30
2022-12-26T18:46:20.854Z,39.63
2022-12-26T18:48:48.967Z,41.58
2022-12-26T18:51:16.949Z,40.90
2022-12-26T18:53:44.369Z,40.22
2022-12-26T18:56:20.767Z,38.75
2022-12-26T18:58:54.088Z,40.40
2022-12-26T19:01:26.040Z,41.10
2022-12-26T19:03:54.043Z,40.72
2022-12-26T19:06:24.846Z,42.63
2022-12-26T19:08:52.376Z,40.88
2022-12-26T19:11:19.850Z,42.28
2022-12-26T19:13:47.237Z,39.88
2022-12-26T19:16:15.479Z,40.63
2022-12-26T19:18:42.866Z,40.40
2022-12-26T19:21:14.132Z,40.75
2022-12-26T19:23:42.346Z,41.90
2022-12-26T19:26:15.927Z,39.75
2022-12-26T19:28:43.385Z,42.90
2022-12-26T19:31:13.689Z,42.55
2022-12-26T19:33:41.087Z,43.38
2022-12-26T19:36:08.687Z,43.30
2022-12-26T19:38:36.317Z,43.75
2022-12-26T19:41:09.724Z,43.13
2022-12-26T19:43:37.990Z,41.13
2022-12-26T19:46:11.655Z,42.47
2022-12-26T19:48:39.636Z,41.80
2022-12-26T19:51:11.304Z,42.38
2022-12-26T19:53:40.640Z,42.35
2022-12-26T19:56:16.824Z,41.92
2022-12-26T19:58:45.552Z,41.75
2022-12-26T20:01:19.136Z,41.95
2022-12-26T20:03:47.458Z,42.70
2022-12-26T20:06:23.403Z,42.72
2022-12-26T20:08:52.112Z,42.75
2022-12-26T20:11:25.966Z,44.00
2022-12-26T20:13:53.722Z,42.92
2022-12-26T20:17:02.988Z,43.60
2022-12-26T20:19:11.300Z,40.80
2022-12-26T20:21:38.745Z,43.35
2022-12-26T20:24:06.269Z,42.75
2022-12-26T20:26:33.609Z,41.60
2022-12-26T20:29:01.898Z,41.78
2022-12-26T20:31:32.740Z,43.60
2022-12-26T20:34:00.310Z,43.25
2022-12-26T20:36:30.189Z,43.53
2022-12-26T20:39:00.420Z,41.30
2022-12-26T20:41:29.050Z,43.35
2022-12-26T20:43:57.079Z,41.70
2022-12-26T20:46:27.902Z,41.50
2022-12-26T20:48:55.735Z,40.20
2022-12-26T20:51:30.179Z,43.88
2022-12-26T20:54:03.107Z,44.08
2022-12-26T20:56:30.810Z,43.13
2022-12-26T20:58:59.698Z,42.33
2022-12-26T21:01:28.320Z,42.60
2022-12-26T21:03:57.228Z,43.15
2022-12-26T21:06:28.853Z,43.22
2022-12-26T21:08:57.635Z,44.17
2022-12-26T21:11:27.044Z,41.97
2022-12-26T21:13:59.238Z,42.63
2022-12-26T21:16:31.676Z,42.53
2022-12-26T21:18:59.250Z,42.80
2022-12-26T21:21:32.703Z,43.17
2022-12-26T21:24:07.039Z,44.13
2022-12-26T21:26:39.926Z,40.50
2022-12-26T21:29:10.736Z,42.15
2022-12-26T21:31:38.828Z,43.20
2022-12-26T21:34:06.237Z,43.47
2022-12-26T21:36:35.340Z,42.67
2022-12-26T21:39:10.149Z,42.60
2022-12-26T21:41:38.051Z,44.13
2022-12-26T21:44:05.454Z,42.78
2022-12-26T21:46:32.847Z,42.67
2022-12-26T21:49:01.180Z,42.72
2022-12-26T21:51:29.713Z,44.08
2022-12-26T21:54:16.924Z,43.30
2022-12-26T21:56:45.249Z,44.25
2022-12-26T21:59:30.895Z,43.85
2022-12-26T22:01:58.388Z,43.88
2022-12-26T22:04:26.252Z,41.15
2022-12-26T22:06:53.609Z,42.42
2022-12-26T22:09:21.695Z,42.72
2022-12-26T22:12:07.366Z,41.35
2022-12-26T22:14:34.696Z,43.78
2022-12-26T22:17:02.015Z,42.13
2022-12-26T22:19:29.475Z,42.03
2022-12-26T22:21:56.842Z,43.00
2022-12-26T22:24:24.836Z,44.08
2022-12-26T22:26:52.626Z,42.75
2022-12-26T22:29:20.053Z,43.17
2022-12-26T22:31:47.338Z,42.58
2022-12-26T22:34:16.789Z,42.88
2022-12-26T22:36:46.804Z,43.30
2022-12-26T22:39:17.091Z,42.13
2022-12-26T22:41:45.861Z,41.00
2022-12-26T22:44:14.906Z,42.25
2022-12-26T22:46:42.524Z,42.70
2022-12-26T22:49:10.105Z,41.85
2022-12-26T22:51:37.798Z,42.38
2022-12-26T22:54:05.674Z,42.65
2022-12-26T22:56:33.884Z,43.00
2022-12-26T22:59:02.155Z,40.65
2022-12-26T23:01:29.820Z,44.10
2022-12-26T23:03:57.768Z,43.72
2022-12-26T23:06:31.042Z,44.05
2022-12-26T23:09:01.065Z,45.20
2022-12-26T23:11:34.779Z,43.55
2022-12-26T23:14:05.254Z,42.90
2022-12-26T23:16:35.993Z,43.20
2022-12-26T23:19:38.979Z,43.63
2022-12-26T23:22:06.528Z,43.17
2022-12-26T23:24:34.233Z,42.88
2022-12-26T23:27:25.236Z,45.15
2022-12-26T23:30:13.767Z,44.50
2022-12-26T23:32:43.351Z,45.80
2022-12-26T23:35:12.337Z,44.53
2022-12-26T23:37:40.424Z,44.28
2022-12-26T23:40:09.555Z,46.50
2022-12-26T23:42:37.089Z,43.83
2022-12-26T23:45:05.290Z,44.30
2022-12-26T23:47:32.610Z,44.75
2022-12-26T23:50:00.001Z,45.30
2022-12-26T23:52:30.555Z,46.17
2022-12-26T23:54:58.520Z,46.47
2022-12-26T23:57:26.000Z,45.92
2022-12-26T23:59:53.495Z,45.35
